sensor_id;sensor_type;location;lat;lon;timestamp;P1;durP1;ratioP1;P2;durP2;ratioP2
55815;SDS011;41744;52.404;16.942;2023-02-15T00:01:18;111.60;;;37.13;;
55815;SDS011;41744;52.404;16.942;2023-02-15T00:03:44;117.37;;;37.47;;
55815;SDS011;41744;52.404;16.942;2023-02-15T00:06:10;121.13;;;39.77;;
55815;SDS011;41744;52.404;16.942;2023-02-15T00:08:36;112.30;;;36.93;;
55815;SDS011;41744;52.404;16.942;2023-02-15T00:11:06;109.10;;;36.30;;
55815;SDS011;41744;52.404;16.942;2023-02-15T00:13:33;113.37;;;37.40;;
55815;SDS011;41744;52.404;16.942;2023-02-15T00:16:05;107.70;;;35.27;;
55815;SDS011;41744;52.404;16.942;2023-02-15T00:18:32;102.73;;;37.50;;
55815;SDS011;41744;52.404;16.942;2023-02-15T00:20:59;103.80;;;37.30;;
55815;SDS011;41744;52.404;16.942;2023-02-15T00:23:28;129.53;;;40.20;;
55815;SDS011;41744;52.404;16.942;2023-02-15T00:26:07;116.90;;;39.53;;
55815;SDS011;41744;52.404;16.942;2023-02-15T00:28:34;122.60;;;39.77;;
55815;SDS011;41744;52.404;16.942;2023-02-15T00:31:04;117.53;;;39.13;;
55815;SDS011;41744;52.404;16.942;2023-02-15T00:33:30;115.50;;;40.13;;
55815;SDS011;41744;52.404;16.942;2023-02-15T00:35:57;128.50;;;44.43;;
55815;SDS011;41744;52.404;16.942;2023-02-15T00:38:25;259.40;;;65.87;;
55815;SDS011;41744;52.404;16.942;2023-02-15T00:40:54;416.67;;;95.43;;
55815;SDS011;41744;52.404;16.942;2023-02-15T00:43:21;226.37;;;58.50;;
55815;SDS011;41744;52.404;16.942;2023-02-15T00:45:47;144.83;;;45.77;;
55815;SDS011;41744;52.404;16.942;2023-02-15T00:48:14;125.50;;;41.47;;
55815;SDS011;41744;52.404;16.942;2023-02-15T00:50:40;117.77;;;40.80;;
55815;SDS011;41744;52.404;16.942;2023-02-15T00:53:07;131.00;;;40.03;;
55815;SDS011;41744;52.404;16.942;2023-02-15T00:55:33;127.10;;;40.73;;
55815;SDS011;41744;52.404;16.942;2023-02-15T00:57:59;133.70;;;41.60;;
55815;SDS011;41744;52.404;16.942;2023-02-15T01:00:25;143.40;;;40.57;;
55815;SDS011;41744;52.404;16.942;2023-02-15T01:02:51;135.60;;;41.37;;
55815;SDS011;41744;52.404;16.942;2023-02-15T01:05:17;126.97;;;40.87;;
55815;SDS011;41744;52.404;16.942;2023-02-15T01:07:43;124.97;;;38.63;;
55815;SDS011;41744;52.404;16.942;2023-02-15T01:10:09;129.30;;;40.17;;
55815;SDS011;41744;52.404;16.942;2023-02-15T01:12:35;124.33;;;39.17;;
55815;SDS011;41744;52.404;16.942;2023-02-15T01:15:02;136.80;;;41.47;;
55815;SDS011;41744;52.404;16.942;2023-02-15T01:17:28;121.80;;;39.10;;
55815;SDS011;41744;52.404;16.942;2023-02-15T01:19:54;124.93;;;39.27;;
55815;SDS011;41744;52.404;16.942;2023-02-15T01:22:20;122.40;;;41.17;;
55815;SDS011;41744;52.404;16.942;2023-02-15T01:24:48;112.50;;;37.40;;
55815;SDS011;41744;52.404;16.942;2023-02-15T01:27:15;112.67;;;37.30;;
55815;SDS011;41744;52.404;16.942;2023-02-15T01:29:41;118.20;;;38.03;;
55815;SDS011;41744;52.404;16.942;2023-02-15T01:32:07;105.87;;;34.93;;
55815;SDS011;41744;52.404;16.942;2023-02-15T01:34:33;115.20;;;36.90;;
55815;SDS011;41744;52.404;16.942;2023-02-15T01:36:59;115.13;;;35.90;;
55815;SDS011;41744;52.404;16.942;2023-02-15T01:39:25;104.43;;;35.90;;
55815;SDS011;41744;52.404;16.942;2023-02-15T01:41:51;110.30;;;35.70;;
55815;SDS011;41744;52.404;16.942;2023-02-15T01:47:02;112.40;;;35.00;;
55815;SDS011;41744;52.404;16.942;2023-02-15T01:49:28;104.13;;;36.40;;
55815;SDS011;41744;52.404;16.942;2023-02-15T01:51:54;104.40;;;33.33;;
55815;SDS011;41744;52.404;16.942;2023-02-15T01:54:25;114.40;;;35.83;;
55815;SDS011;41744;52.404;16.942;2023-02-15T01:56:54;116.87;;;35.37;;
55815;SDS011;41744;52.404;16.942;2023-02-15T01:59:22;104.77;;;35.13;;
55815;SDS011;41744;52.404;16.942;2023-02-15T02:01:49;104.63;;;35.13;;
55815;SDS011;41744;52.404;16.942;2023-02-15T02:06:42;122.70;;;38.60;;
55815;SDS011;41744;52.404;16.942;2023-02-15T02:09:09;121.30;;;38.20;;
55815;SDS011;41744;52.404;16.942;2023-02-15T02:11:36;113.20;;;37.30;;
55815;SDS011;41744;52.404;16.942;2023-02-15T02:14:04;113.90;;;36.20;;
55815;SDS011;41744;52.404;16.942;2023-02-15T02:19:09;109.57;;;34.13;;
55815;SDS011;41744;52.404;16.942;2023-02-15T02:21:42;105.43;;;34.57;;
55815;SDS011;41744;52.404;16.942;2023-02-15T02:35:28;105.20;;;35.17;;
55815;SDS011;41744;52.404;16.942;2023-02-15T02:38:04;105.30;;;34.43;;
55815;SDS011;41744;52.404;16.942;2023-02-15T02:40:48;98.53;;;33.40;;
55815;SDS011;41744;52.404;16.942;2023-02-15T02:43:21;116.57;;;36.07;;
55815;SDS011;41744;52.404;16.942;2023-02-15T02:48:47;101.63;;;33.93;;
55815;SDS011;41744;52.404;16.942;2023-02-15T02:51:14;109.60;;;36.40;;
55815;SDS011;41744;52.404;16.942;2023-02-15T02:53:46;87.97;;;33.33;;
55815;SDS011;41744;52.404;16.942;2023-02-15T02:58:44;102.50;;;34.37;;
55815;SDS011;41744;52.404;16.942;2023-02-15T03:03:44;103.67;;;36.40;;
55815;SDS011;41744;52.404;16.942;2023-02-15T03:06:33;111.43;;;36.60;;
55815;SDS011;41744;52.404;16.942;2023-02-15T03:09:02;114.23;;;36.30;;
55815;SDS011;41744;52.404;16.942;2023-02-15T03:11:29;111.20;;;35.90;;
55815;SDS011;41744;52.404;16.942;2023-02-15T03:13:55;108.87;;;37.47;;
55815;SDS011;41744;52.404;16.942;2023-02-15T03:16:22;107.40;;;36.27;;
55815;SDS011;41744;52.404;16.942;2023-02-15T03:18:53;120.27;;;36.13;;
55815;SDS011;41744;52.404;16.942;2023-02-15T03:21:24;101.20;;;36.00;;
55815;SDS011;41744;52.404;16.942;2023-02-15T03:23:54;104.90;;;35.20;;
55815;SDS011;41744;52.404;16.942;2023-02-15T03:26:23;99.20;;;33.63;;
55815;SDS011;41744;52.404;16.942;2023-02-15T03:28:50;110.50;;;35.60;;
55815;SDS011;41744;52.404;16.942;2023-02-15T03:31:19;108.70;;;34.27;;
55815;SDS011;41744;52.404;16.942;2023-02-15T03:33:55;98.20;;;33.33;;
55815;SDS011;41744;52.404;16.942;2023-02-15T03:36:33;97.90;;;33.87;;
55815;SDS011;41744;52.404;16.942;2023-02-15T03:41:55;104.30;;;33.67;;
55815;SDS011;41744;52.404;16.942;2023-02-15T03:44:32;103.93;;;33.87;;
55815;SDS011;41744;52.404;16.942;2023-02-15T03:47:05;108.20;;;33.50;;
55815;SDS011;41744;52.404;16.942;2023-02-15T03:52:21;101.77;;;32.33;;
55815;SDS011;41744;52.404;16.942;2023-02-15T03:54:47;103.33;;;34.10;;
55815;SDS011;41744;52.404;16.942;2023-02-15T03:59:59;101.57;;;32.23;;
55815;SDS011;41744;52.404;16.942;2023-02-15T04:02:47;93.17;;;31.60;;
55815;SDS011;41744;52.404;16.942;2023-02-15T04:05:18;89.67;;;30.33;;
55815;SDS011;41744;52.404;16.942;2023-02-15T04:07:44;99.73;;;32.70;;
55815;SDS011;41744;52.404;16.942;2023-02-15T04:10:10;105.00;;;33.37;;
55815;SDS011;41744;52.404;16.942;2023-02-15T04:12:54;101.00;;;32.40;;
55815;SDS011;41744;52.404;16.942;2023-02-15T04:15:21;104.70;;;34.03;;
55815;SDS011;41744;52.404;16.942;2023-02-15T04:18:06;95.20;;;32.83;;
55815;SDS011;41744;52.404;16.942;2023-02-15T04:20:32;98.80;;;32.60;;
55815;SDS011;41744;52.404;16.942;2023-02-15T04:23:16;105.90;;;31.00;;
55815;SDS011;41744;52.404;16.942;2023-02-15T04:26:03;89.00;;;30.40;;
55815;SDS011;41744;52.404;16.942;2023-02-15T04:28:29;96.17;;;31.10;;
55815;SDS011;41744;52.404;16.942;2023-02-15T04:30:55;85.77;;;29.47;;
55815;SDS011;41744;52.404;16.942;2023-02-15T04:33:21;92.83;;;29.87;;
55815;SDS011;41744;52.404;16.942;2023-02-15T04:35:47;89.77;;;29.60;;
55815;SDS011;41744;52.404;16.942;2023-02-15T04:38:13;95.90;;;31.50;;
55815;SDS011;41744;52.404;16.942;2023-02-15T04:40:39;84.23;;;28.23;;
55815;SDS011;41744;52.404;16.942;2023-02-15T04:43:05;76.00;;;26.23;;
55815;SDS011;41744;52.404;16.942;2023-02-15T04:45:31;79.23;;;28.97;;
55815;SDS011;41744;52.404;16.942;2023-02-15T04:47:57;78.43;;;27.70;;
55815;SDS011;41744;52.404;16.942;2023-02-15T04:50:23;84.87;;;29.43;;
55815;SDS011;41744;52.404;16.942;2023-02-15T04:52:49;89.63;;;30.47;;
55815;SDS011;41744;52.404;16.942;2023-02-15T04:55:16;98.30;;;30.57;;
55815;SDS011;41744;52.404;16.942;2023-02-15T04:57:42;84.73;;;27.93;;
55815;SDS011;41744;52.404;16.942;2023-02-15T05:00:08;94.30;;;29.67;;
55815;SDS011;41744;52.404;16.942;2023-02-15T05:02:34;87.33;;;27.87;;
55815;SDS011;41744;52.404;16.942;2023-02-15T05:05:00;84.17;;;27.87;;
55815;SDS011;41744;52.404;16.942;2023-02-15T05:07:26;86.90;;;28.67;;
55815;SDS011;41744;52.404;16.942;2023-02-15T05:09:52;84.83;;;27.07;;
55815;SDS011;41744;52.404;16.942;2023-02-15T05:12:18;84.20;;;28.17;;
55815;SDS011;41744;52.404;16.942;2023-02-15T05:14:44;86.13;;;27.50;;
55815;SDS011;41744;52.404;16.942;2023-02-15T05:17:10;77.93;;;27.63;;
55815;SDS011;41744;52.404;16.942;2023-02-15T05:19:36;90.90;;;26.80;;
55815;SDS011;41744;52.404;16.942;2023-02-15T05:22:02;82.47;;;26.43;;
55815;SDS011;41744;52.404;16.942;2023-02-15T05:24:28;71.17;;;26.27;;
55815;SDS011;41744;52.404;16.942;2023-02-15T05:27:13;72.07;;;25.27;;
55815;SDS011;41744;52.404;16.942;2023-02-15T05:29:57;76.77;;;25.77;;
55815;SDS011;41744;52.404;16.942;2023-02-15T05:32:23;74.17;;;25.43;;
55815;SDS011;41744;52.404;16.942;2023-02-15T05:34:50;89.33;;;27.30;;
55815;SDS011;41744;52.404;16.942;2023-02-15T05:37:16;88.80;;;27.47;;
55815;SDS011;41744;52.404;16.942;2023-02-15T05:39:42;78.53;;;27.50;;
55815;SDS011;41744;52.404;16.942;2023-02-15T05:42:08;83.70;;;25.90;;
55815;SDS011;41744;52.404;16.942;2023-02-15T05:44:34;75.57;;;26.27;;
55815;SDS011;41744;52.404;16.942;2023-02-15T05:47:00;69.80;;;24.90;;
55815;SDS011;41744;52.404;16.942;2023-02-15T05:49:27;70.47;;;25.57;;
55815;SDS011;41744;52.404;16.942;2023-02-15T05:51:55;71.80;;;26.20;;
55815;SDS011;41744;52.404;16.942;2023-02-15T05:54:21;83.77;;;27.33;;
55815;SDS011;41744;52.404;16.942;2023-02-15T05:56:47;83.07;;;26.30;;
55815;SDS011;41744;52.404;16.942;2023-02-15T05:59:13;77.03;;;27.10;;
55815;SDS011;41744;52.404;16.942;2023-02-15T06:01:39;78.40;;;26.50;;
55815;SDS011;41744;52.404;16.942;2023-02-15T06:04:05;77.73;;;25.57;;
55815;SDS011;41744;52.404;16.942;2023-02-15T06:06:31;75.93;;;25.73;;
55815;SDS011;41744;52.404;16.942;2023-02-15T06:08:59;80.87;;;27.97;;
55815;SDS011;41744;52.404;16.942;2023-02-15T06:11:25;82.40;;;28.07;;
55815;SDS011;41744;52.404;16.942;2023-02-15T06:13:51;77.57;;;26.30;;
55815;SDS011;41744;52.404;16.942;2023-02-15T06:16:17;76.07;;;25.37;;
55815;SDS011;41744;52.404;16.942;2023-02-15T06:18:43;75.90;;;27.17;;
55815;SDS011;41744;52.404;16.942;2023-02-15T06:21:09;70.03;;;25.43;;
55815;SDS011;41744;52.404;16.942;2023-02-15T06:23:35;83.50;;;28.57;;
55815;SDS011;41744;52.404;16.942;2023-02-15T06:26:01;86.57;;;27.57;;
55815;SDS011;41744;52.404;16.942;2023-02-15T06:28:27;88.30;;;28.80;;
55815;SDS011;41744;52.404;16.942;2023-02-15T06:30:54;89.00;;;28.67;;
55815;SDS011;41744;52.404;16.942;2023-02-15T06:33:20;79.07;;;27.73;;
55815;SDS011;41744;52.404;16.942;2023-02-15T06:35:46;68.27;;;25.17;;
55815;SDS011;41744;52.404;16.942;2023-02-15T06:38:12;73.43;;;24.80;;
55815;SDS011;41744;52.404;16.942;2023-02-15T06:40:38;70.50;;;24.43;;
55815;SDS011;41744;52.404;16.942;2023-02-15T06:43:04;73.33;;;24.57;;
55815;SDS011;41744;52.404;16.942;2023-02-15T06:45:30;69.60;;;25.07;;
55815;SDS011;41744;52.404;16.942;2023-02-15T06:47:56;72.63;;;24.00;;
55815;SDS011;41744;52.404;16.942;2023-02-15T06:50:22;68.40;;;23.30;;
55815;SDS011;41744;52.404;16.942;2023-02-15T06:52:48;66.73;;;23.70;;
55815;SDS011;41744;52.404;16.942;2023-02-15T06:55:14;68.60;;;24.73;;
55815;SDS011;41744;52.404;16.942;2023-02-15T06:57:40;60.40;;;24.40;;
55815;SDS011;41744;52.404;16.942;2023-02-15T07:00:06;65.57;;;24.27;;
55815;SDS011;41744;52.404;16.942;2023-02-15T07:02:33;60.97;;;23.80;;
55815;SDS011;41744;52.404;16.942;2023-02-15T07:04:59;67.97;;;24.13;;
55815;SDS011;41744;52.404;16.942;2023-02-15T07:07:25;67.80;;;23.07;;
55815;SDS011;41744;52.404;16.942;2023-02-15T07:09:51;62.53;;;22.80;;
55815;SDS011;41744;52.404;16.942;2023-02-15T07:12:17;61.40;;;21.80;;
55815;SDS011;41744;52.404;16.942;2023-02-15T07:15:02;66.30;;;24.77;;
55815;SDS011;41744;52.404;16.942;2023-02-15T07:17:31;65.27;;;24.00;;
55815;SDS011;41744;52.404;16.942;2023-02-15T07:19:57;62.87;;;22.63;;
55815;SDS011;41744;52.404;16.942;2023-02-15T07:22:23;58.73;;;23.03;;
55815;SDS011;41744;52.404;16.942;2023-02-15T07:24:49;61.40;;;22.63;;
55815;SDS011;41744;52.404;16.942;2023-02-15T07:27:19;61.43;;;24.50;;
55815;SDS011;41744;52.404;16.942;2023-02-15T07:29:45;64.13;;;22.23;;
55815;SDS011;41744;52.404;16.942;2023-02-15T07:32:11;51.37;;;22.20;;
55815;SDS011;41744;52.404;16.942;2023-02-15T07:34:37;63.30;;;23.30;;
55815;SDS011;41744;52.404;16.942;2023-02-15T07:37:03;58.13;;;22.53;;
55815;SDS011;41744;52.404;16.942;2023-02-15T07:39:29;53.50;;;21.83;;
55815;SDS011;41744;52.404;16.942;2023-02-15T07:41:55;59.30;;;22.70;;
55815;SDS011;41744;52.404;16.942;2023-02-15T07:44:21;56.43;;;21.83;;
55815;SDS011;41744;52.404;16.942;2023-02-15T07:46:47;59.97;;;22.47;;
55815;SDS011;41744;52.404;16.942;2023-02-15T07:49:13;52.50;;;21.17;;
55815;SDS011;41744;52.404;16.942;2023-02-15T07:51:40;53.90;;;22.10;;
55815;SDS011;41744;52.404;16.942;2023-02-15T07:54:06;52.30;;;21.37;;
55815;SDS011;41744;52.404;16.942;2023-02-15T07:56:32;52.30;;;21.13;;
55815;SDS011;41744;52.404;16.942;2023-02-15T07:58:58;58.47;;;22.07;;
55815;SDS011;41744;52.404;16.942;2023-02-15T08:01:29;55.33;;;21.40;;
55815;SDS011;41744;52.404;16.942;2023-02-15T08:03:56;55.73;;;20.97;;
55815;SDS011;41744;52.404;16.942;2023-02-15T08:06:23;51.53;;;21.00;;
55815;SDS011;41744;52.404;16.942;2023-02-15T08:08:49;51.00;;;21.43;;
55815;SDS011;41744;52.404;16.942;2023-02-15T08:11:22;54.40;;;21.57;;
55815;SDS011;41744;52.404;16.942;2023-02-15T08:19:11;54.40;;;21.37;;
55815;SDS011;41744;52.404;16.942;2023-02-15T08:21:41;55.60;;;21.43;;
55815;SDS011;41744;52.404;16.942;2023-02-15T08:24:08;51.20;;;21.13;;
55815;SDS011;41744;52.404;16.942;2023-02-15T08:26:34;54.13;;;20.73;;
55815;SDS011;41744;52.404;16.942;2023-02-15T08:29:01;54.47;;;20.97;;
55815;SDS011;41744;52.404;16.942;2023-02-15T08:31:27;49.30;;;20.60;;
55815;SDS011;41744;52.404;16.942;2023-02-15T08:33:53;49.07;;;19.33;;
55815;SDS011;41744;52.404;16.942;2023-02-15T08:36:21;58.43;;;22.07;;
55815;SDS011;41744;52.404;16.942;2023-02-15T08:38:47;56.63;;;21.37;;
55815;SDS011;41744;52.404;16.942;2023-02-15T08:41:16;60.47;;;20.67;;
55815;SDS011;41744;52.404;16.942;2023-02-15T08:43:42;48.00;;;19.97;;
55815;SDS011;41744;52.404;16.942;2023-02-15T08:46:09;55.00;;;21.73;;
55815;SDS011;41744;52.404;16.942;2023-02-15T08:48:36;57.47;;;21.50;;
55815;SDS011;41744;52.404;16.942;2023-02-15T08:51:09;58.30;;;21.07;;
55815;SDS011;41744;52.404;16.942;2023-02-15T08:53:39;47.20;;;18.90;;
55815;SDS011;41744;52.404;16.942;2023-02-15T08:56:06;47.87;;;20.00;;
55815;SDS011;41744;52.404;16.942;2023-02-15T08:58:32;49.30;;;19.33;;
55815;SDS011;41744;52.404;16.942;2023-02-15T09:00:58;47.87;;;19.27;;
55815;SDS011;41744;52.404;16.942;2023-02-15T09:03:26;46.77;;;19.67;;
55815;SDS011;41744;52.404;16.942;2023-02-15T09:05:56;46.40;;;20.30;;
55815;SDS011;41744;52.404;16.942;2023-02-15T09:08:22;43.60;;;17.77;;
55815;SDS011;41744;52.404;16.942;2023-02-15T09:10:48;45.40;;;19.50;;
55815;SDS011;41744;52.404;16.942;2023-02-15T09:13:14;45.70;;;19.73;;
55815;SDS011;41744;52.404;16.942;2023-02-15T09:15:41;44.77;;;19.00;;
55815;SDS011;41744;52.404;16.942;2023-02-15T09:18:07;43.00;;;18.10;;
55815;SDS011;41744;52.404;16.942;2023-02-15T09:20:35;45.43;;;18.13;;
55815;SDS011;41744;52.404;16.942;2023-02-15T09:23:02;44.63;;;19.03;;
55815;SDS011;41744;52.404;16.942;2023-02-15T09:25:28;41.87;;;17.87;;
55815;SDS011;41744;52.404;16.942;2023-02-15T09:27:54;41.17;;;18.00;;
55815;SDS011;41744;52.404;16.942;2023-02-15T09:30:20;45.53;;;18.57;;
55815;SDS011;41744;52.404;16.942;2023-02-15T09:32:47;46.07;;;19.30;;
55815;SDS011;41744;52.404;16.942;2023-02-15T09:35:13;52.83;;;18.93;;
55815;SDS011;41744;52.404;16.942;2023-02-15T09:37:39;47.53;;;18.30;;
55815;SDS011;41744;52.404;16.942;2023-02-15T09:40:05;50.80;;;18.97;;
55815;SDS011;41744;52.404;16.942;2023-02-15T09:45:09;49.13;;;18.27;;
55815;SDS011;41744;52.404;16.942;2023-02-15T09:55:41;45.57;;;17.53;;
55815;SDS011;41744;52.404;16.942;2023-02-15T10:03:39;44.73;;;18.40;;
55815;SDS011;41744;52.404;16.942;2023-02-15T10:08:47;45.93;;;18.23;;
55815;SDS011;41744;52.404;16.942;2023-02-15T10:21:54;44.13;;;17.70;;
55815;SDS011;41744;52.404;16.942;2023-02-15T10:24:28;42.23;;;16.37;;
55815;SDS011;41744;52.404;16.942;2023-02-15T10:26:58;44.60;;;17.30;;
55815;SDS011;41744;52.404;16.942;2023-02-15T10:29:36;38.83;;;16.47;;
55815;SDS011;41744;52.404;16.942;2023-02-15T10:32:24;44.50;;;17.93;;
55815;SDS011;41744;52.404;16.942;2023-02-15T10:34:54;44.00;;;17.37;;
55815;SDS011;41744;52.404;16.942;2023-02-15T10:37:29;40.77;;;16.73;;
55815;SDS011;41744;52.404;16.942;2023-02-15T10:50:19;44.90;;;18.17;;
55815;SDS011;41744;52.404;16.942;2023-02-15T11:03:05;48.87;;;18.67;;
55815;SDS011;41744;52.404;16.942;2023-02-15T11:05:39;44.30;;;17.97;;
55815;SDS011;41744;52.404;16.942;2023-02-15T11:08:07;44.00;;;18.20;;
55815;SDS011;41744;52.404;16.942;2023-02-15T11:13:16;45.40;;;18.17;;
55815;SDS011;41744;52.404;16.942;2023-02-15T11:15:47;45.67;;;18.37;;
55815;SDS011;41744;52.404;16.942;2023-02-15T11:21:02;51.23;;;19.10;;
55815;SDS011;41744;52.404;16.942;2023-02-15T11:23:30;48.20;;;19.53;;
55815;SDS011;41744;52.404;16.942;2023-02-15T11:26:02;52.40;;;19.07;;
55815;SDS011;41744;52.404;16.942;2023-02-15T11:28:37;47.00;;;18.83;;
55815;SDS011;41744;52.404;16.942;2023-02-15T11:31:26;45.27;;;18.97;;
55815;SDS011;41744;52.404;16.942;2023-02-15T11:33:52;53.27;;;18.53;;
55815;SDS011;41744;52.404;16.942;2023-02-15T11:36:24;50.30;;;19.27;;
55815;SDS011;41744;52.404;16.942;2023-02-15T11:38:54;51.53;;;20.20;;
55815;SDS011;41744;52.404;16.942;2023-02-15T11:41:24;55.77;;;20.70;;
55815;SDS011;41744;52.404;16.942;2023-02-15T11:43:54;50.13;;;19.73;;
55815;SDS011;41744;52.404;16.942;2023-02-15T11:46:22;54.20;;;21.10;;
55815;SDS011;41744;52.404;16.942;2023-02-15T11:48:48;52.37;;;20.60;;
55815;SDS011;41744;52.404;16.942;2023-02-15T11:51:16;46.77;;;19.90;;
55815;SDS011;41744;52.404;16.942;2023-02-15T11:53:42;50.83;;;19.50;;
55815;SDS011;41744;52.404;16.942;2023-02-15T11:56:15;50.37;;;19.50;;
55815;SDS011;41744;52.404;16.942;2023-02-15T11:58:47;53.37;;;19.63;;
55815;SDS011;41744;52.404;16.942;2023-02-15T12:03:49;53.97;;;20.13;;
55815;SDS011;41744;52.404;16.942;2023-02-15T12:06:26;54.67;;;20.20;;
55815;SDS011;41744;52.404;16.942;2023-02-15T12:11:42;51.50;;;19.57;;
55815;SDS011;41744;52.404;16.942;2023-02-15T12:14:09;49.93;;;19.90;;
55815;SDS011;41744;52.404;16.942;2023-02-15T12:21:52;53.37;;;20.07;;
55815;SDS011;41744;52.404;16.942;2023-02-15T12:24:20;53.17;;;20.90;;
55815;SDS011;41744;52.404;16.942;2023-02-15T12:26:56;51.83;;;21.13;;
55815;SDS011;41744;52.404;16.942;2023-02-15T12:29:25;51.87;;;20.80;;
55815;SDS011;41744;52.404;16.942;2023-02-15T12:31:52;55.77;;;20.60;;
55815;SDS011;41744;52.404;16.942;2023-02-15T12:34:22;53.77;;;21.57;;
55815;SDS011;41744;52.404;16.942;2023-02-15T12:36:49;53.20;;;20.93;;
55815;SDS011;41744;52.404;16.942;2023-02-15T12:39:22;51.20;;;20.07;;
55815;SDS011;41744;52.404;16.942;2023-02-15T12:44:22;51.30;;;20.83;;
55815;SDS011;41744;52.404;16.942;2023-02-15T12:49:23;55.10;;;21.60;;
55815;SDS011;41744;52.404;16.942;2023-02-15T12:51:50;54.47;;;21.20;;
55815;SDS011;41744;52.404;16.942;2023-02-15T12:57:02;52.20;;;20.80;;
55815;SDS011;41744;52.404;16.942;2023-02-15T12:59:43;52.83;;;20.77;;
55815;SDS011;41744;52.404;16.942;2023-02-15T13:02:26;57.03;;;22.03;;
55815;SDS011;41744;52.404;16.942;2023-02-15T13:04:53;53.40;;;21.30;;
55815;SDS011;41744;52.404;16.942;2023-02-15T13:07:19;52.73;;;21.87;;
55815;SDS011;41744;52.404;16.942;2023-02-15T13:09:46;55.43;;;22.03;;
55815;SDS011;41744;52.404;16.942;2023-02-15T13:12:18;56.33;;;22.10;;
55815;SDS011;41744;52.404;16.942;2023-02-15T13:14:44;65.77;;;22.93;;
55815;SDS011;41744;52.404;16.942;2023-02-15T13:17:11;54.17;;;21.67;;
55815;SDS011;41744;52.404;16.942;2023-02-15T13:19:42;57.80;;;21.43;;
55815;SDS011;41744;52.404;16.942;2023-02-15T13:22:10;57.23;;;21.83;;
55815;SDS011;41744;52.404;16.942;2023-02-15T13:24:40;53.53;;;21.13;;
55815;SDS011;41744;52.404;16.942;2023-02-15T13:27:08;54.93;;;21.67;;
55815;SDS011;41744;52.404;16.942;2023-02-15T13:29:37;54.97;;;22.33;;
55815;SDS011;41744;52.404;16.942;2023-02-15T13:32:10;58.97;;;22.57;;
55815;SDS011;41744;52.404;16.942;2023-02-15T13:34:38;52.23;;;21.40;;
55815;SDS011;41744;52.404;16.942;2023-02-15T13:37:15;53.50;;;21.37;;
55815;SDS011;41744;52.404;16.942;2023-02-15T13:39:54;57.83;;;23.10;;
55815;SDS011;41744;52.404;16.942;2023-02-15T13:42:36;58.07;;;22.20;;
55815;SDS011;41744;52.404;16.942;2023-02-15T13:47:45;55.93;;;22.13;;
55815;SDS011;41744;52.404;16.942;2023-02-15T14:03:13;55.43;;;22.47;;
55815;SDS011;41744;52.404;16.942;2023-02-15T14:08:44;57.23;;;22.23;;
55815;SDS011;41744;52.404;16.942;2023-02-15T14:11:15;50.93;;;20.87;;
55815;SDS011;41744;52.404;16.942;2023-02-15T14:14:05;51.67;;;20.57;;
55815;SDS011;41744;52.404;16.942;2023-02-15T14:27:09;51.93;;;20.97;;
55815;SDS011;41744;52.404;16.942;2023-02-15T14:29:42;54.10;;;21.53;;
55815;SDS011;41744;52.404;16.942;2023-02-15T14:32:24;58.93;;;20.90;;
55815;SDS011;41744;52.404;16.942;2023-02-15T14:34:55;57.33;;;20.80;;
55815;SDS011;41744;52.404;16.942;2023-02-15T14:37:25;50.20;;;20.20;;
55815;SDS011;41744;52.404;16.942;2023-02-15T14:39:58;60.73;;;21.07;;
55815;SDS011;41744;52.404;16.942;2023-02-15T14:47:38;58.60;;;21.10;;
55815;SDS011;41744;52.404;16.942;2023-02-15T14:53:14;53.40;;;19.90;;
55815;SDS011;41744;52.404;16.942;2023-02-15T14:55:35;53.60;;;20.13;;
55815;SDS011;41744;52.404;16.942;2023-02-15T14:58:09;55.70;;;21.13;;
55815;SDS011;41744;52.404;16.942;2023-02-15T15:00:37;56.83;;;21.67;;
55815;SDS011;41744;52.404;16.942;2023-02-15T15:03:09;53.77;;;20.17;;
55815;SDS011;41744;52.404;16.942;2023-02-15T15:05:37;53.20;;;20.40;;
55815;SDS011;41744;52.404;16.942;2023-02-15T15:08:21;53.07;;;20.30;;
55815;SDS011;41744;52.404;16.942;2023-02-15T15:10:48;58.67;;;20.07;;
55815;SDS011;41744;52.404;16.942;2023-02-15T15:15:55;51.17;;;20.00;;
55815;SDS011;41744;52.404;16.942;2023-02-15T15:18:55;47.60;;;18.67;;
55815;SDS011;41744;52.404;16.942;2023-02-15T15:23:59;53.50;;;19.60;;
55815;SDS011;41744;52.404;16.942;2023-02-15T15:26:31;59.27;;;19.47;;
55815;SDS011;41744;52.404;16.942;2023-02-15T15:29:12;53.97;;;19.53;;
55815;SDS011;41744;52.404;16.942;2023-02-15T15:31:53;44.30;;;18.13;;
55815;SDS011;41744;52.404;16.942;2023-02-15T15:34:28;48.60;;;17.47;;
55815;SDS011;41744;52.404;16.942;2023-02-15T15:50:00;46.90;;;17.37;;
55815;SDS011;41744;52.404;16.942;2023-02-15T15:52:26;50.80;;;18.30;;
55815;SDS011;41744;52.404;16.942;2023-02-15T15:54:57;47.60;;;18.87;;
55815;SDS011;41744;52.404;16.942;2023-02-15T15:57:39;44.80;;;17.87;;
55815;SDS011;41744;52.404;16.942;2023-02-15T16:03:03;48.13;;;18.33;;
55815;SDS011;41744;52.404;16.942;2023-02-15T16:05:38;46.93;;;17.90;;
55815;SDS011;41744;52.404;16.942;2023-02-15T16:08:05;51.37;;;18.33;;
55815;SDS011;41744;52.404;16.942;2023-02-15T16:10:31;52.23;;;19.83;;
55815;SDS011;41744;52.404;16.942;2023-02-15T16:12:58;51.00;;;18.60;;
55815;SDS011;41744;52.404;16.942;2023-02-15T16:15:46;50.93;;;18.73;;
55815;SDS011;41744;52.404;16.942;2023-02-15T16:18:18;57.53;;;19.37;;
55815;SDS011;41744;52.404;16.942;2023-02-15T16:20:52;60.37;;;20.47;;
55815;SDS011;41744;52.404;16.942;2023-02-15T16:28:35;51.03;;;19.60;;
55815;SDS011;41744;52.404;16.942;2023-02-15T16:31:10;51.43;;;20.20;;
55815;SDS011;41744;52.404;16.942;2023-02-15T16:33:37;49.67;;;19.57;;
55815;SDS011;41744;52.404;16.942;2023-02-15T16:36:04;56.00;;;19.97;;
55815;SDS011;41744;52.404;16.942;2023-02-15T16:41:08;58.13;;;21.03;;
55815;SDS011;41744;52.404;16.942;2023-02-15T16:43:35;55.60;;;20.07;;
55815;SDS011;41744;52.404;16.942;2023-02-15T16:46:03;51.07;;;19.17;;
55815;SDS011;41744;52.404;16.942;2023-02-15T16:48:30;54.57;;;19.73;;
55815;SDS011;41744;52.404;16.942;2023-02-15T16:50:57;58.43;;;20.23;;
55815;SDS011;41744;52.404;16.942;2023-02-15T16:53:25;60.07;;;21.17;;
55815;SDS011;41744;52.404;16.942;2023-02-15T16:55:55;55.33;;;20.37;;
55815;SDS011;41744;52.404;16.942;2023-02-15T16:58:25;56.07;;;19.67;;
55815;SDS011;41744;52.404;16.942;2023-02-15T17:00:54;58.37;;;21.33;;
55815;SDS011;41744;52.404;16.942;2023-02-15T17:03:21;54.67;;;20.27;;
55815;SDS011;41744;52.404;16.942;2023-02-15T17:05:49;60.13;;;20.40;;
55815;SDS011;41744;52.404;16.942;2023-02-15T17:10:46;94.10;;;34.50;;
55815;SDS011;41744;52.404;16.942;2023-02-15T17:13:26;68.53;;;24.57;;
55815;SDS011;41744;52.404;16.942;2023-02-15T17:18:25;59.43;;;21.73;;
55815;SDS011;41744;52.404;16.942;2023-02-15T17:20:53;60.10;;;21.07;;
55815;SDS011;41744;52.404;16.942;2023-02-15T17:25:52;62.90;;;21.37;;